METAR Data
IDs: Format: Raw Decoded Include TAF

Data at: 1814 UTC 26 Oct 2021

KETN 261755Z AUTO 16015G24KT 10SM CLR 27/19 A2979 RMK AO2 T02680191 10274 20208
KETN 261735Z AUTO 17017G22KT 10SM SCT025 27/20 A2980 RMK AO2 T02670196
KETN 261715Z AUTO 18016G23KT 10SM BKN020 BKN026 26/19 A2982 RMK AO2 T02560195
KETN 261655Z AUTO 17014KT 10SM BKN020 25/20 A2983 RMK AO2 T02450197
KETN 261635Z AUTO 16015G20KT 10SM BKN018 BKN023 24/20 A2983 RMK AO2 T02420196
KETN 261615Z AUTO 17015KT 10SM OVC016 24/19 A2985 RMK AO2 T02360192
KETN 261555Z AUTO 18012G20KT 10SM OVC014 23/19 A2985 RMK AO2 T02340194
KETN 261535Z AUTO 18012G21KT 10SM OVC014 23/19 A2986 RMK AO2 T02290194
KETN 261515Z AUTO 17010KT 10SM OVC012 22/19 A2986 RMK AO2 T02220192
KETN 261455Z AUTO 17010G20KT 10SM OVC012 22/19 A2987 RMK AO2 T02200191
KETN 261435Z AUTO 16012G20KT 10SM OVC014 22/19 A2987 RMK AO2 T02190193
KETN 261415Z AUTO 17010KT 10SM OVC014 21/19 A2987 RMK AO2 T02130195
KETN 261355Z AUTO 16009KT 10SM OVC016 21/19 A2987 RMK AO2 T02080195
KETN 261335Z AUTO 15008KT 10SM OVC016 21/19 A2986 RMK AO2 T02100193
KETN 261315Z AUTO 16008KT 10SM OVC016 21/19 A2986 RMK AO2 T02110193
KETN 261255Z AUTO 16008KT 10SM OVC018 21/19 A2986 RMK AO2 T02120195
KETN 261235Z AUTO 16008KT 10SM OVC020 22/20 A2986 RMK AO2 T02150197
KETN 261215Z AUTO 16010KT 10SM OVC020 22/20 A2986 RMK AO2 T02190200
KETN 261155Z AUTO 16010KT 10SM OVC020 22/20 A2987 RMK AO2 T02200200 10221 20194
KETN 261135Z AUTO 16009KT 10SM OVC018 22/20 A2987 RMK AO2 T02190199
KETN 261115Z AUTO 17008KT 10SM OVC016 22/20 A2988 RMK AO2 T02200199
KETN 261055Z AUTO 18010G17KT 10SM OVC014 22/20 A2988 RMK AO2 T02200199
KETN 261035Z AUTO 18009KT 7SM OVC012 22/20 A2988 RMK AO2 T02170203
KETN 261015Z AUTO 16005KT 10SM OVC010 20/20 A2989 RMK AO2 T02040200
KETN 260955Z AUTO 15007KT 10SM BKN010 20/20 A2989 RMK AO2 T02000198
KETN 260935Z AUTO 15006KT 10SM SCT012 19/19 A2989 RMK AO2 T01950193
KETN 260915Z AUTO 15005KT 10SM CLR 20/19 A2989 RMK AO2 T01970194
KETN 260855Z AUTO 15006KT 10SM CLR 20/19 A2989 RMK AO2 T02000195
KETN 260835Z AUTO 15006KT 10SM CLR 20/20 A2989 RMK AO2 T02020196
KETN 260815Z AUTO 15007KT 10SM CLR 20/20 A2989 RMK AO2 T02050198
KETN 260755Z AUTO 15007KT 10SM CLR 21/20 A2990 RMK AO2 T02070199
KETN 260735Z AUTO 16006KT 10SM CLR 21/20 A2990 RMK AO2 T02080201
KETN 260715Z AUTO 16006KT 10SM CLR 21/20 A2991 RMK AO2 T02090203
KETN 260655Z AUTO 15006KT 10SM CLR 21/20 A2991 RMK AO2 T02110203
KETN 260635Z AUTO 15006KT 10SM CLR 21/20 A2991 RMK AO2 T02140203
KETN 260615Z AUTO 16006KT 10SM CLR 22/20 A2992 RMK AO2 T02170203
KETN 260555Z AUTO 16006KT 10SM CLR 22/20 A2992 RMK AO2 T02200202 10265 20220
KETN 260535Z AUTO 16006KT 10SM CLR 22/20 A2992 RMK AO2 T02220202
KETN 260515Z AUTO 15006KT 10SM CLR 22/20 A2992 RMK AO2 T02250201
KETN 260455Z AUTO 16007KT 10SM CLR 23/20 A2993 RMK AO2 T02280200
KETN 260435Z AUTO 15010KT 10SM CLR 23/20 A2993 RMK AO2 T02310198
KETN 260415Z AUTO 15008KT 10SM CLR 23/20 A2993 RMK AO2 T02340196
KETN 260355Z AUTO 15009KT 10SM CLR 23/19 A2993 RMK AO2 T02350194
KETN 260335Z AUTO 15009KT 10SM CLR 23/19 A2993 RMK AO2 T02320195
KETN 260315Z AUTO 14006KT 10SM CLR 23/19 A2993 RMK AO2 T02280192
KETN 260255Z AUTO 13007KT 10SM CLR 23/19 A2993 RMK AO2 T02320189
KETN 260235Z AUTO 13006KT 10SM CLR 23/19 A2993 RMK AO2 T02340188
KETN 260215Z AUTO 12006KT 10SM CLR 24/19 A2992 RMK AO2 T02390186
KETN 260155Z AUTO 11006KT 10SM CLR 25/19 A2992 RMK AO2 T02460185
KETN 260135Z AUTO 11008KT 10SM CLR 25/19 A2992 RMK AO2 T02520185
KETN 260115Z AUTO 10007KT 10SM CLR 25/19 A2992 RMK AO2 T02540185
KETN 260055Z AUTO 11007KT 10SM CLR 25/19 A2992 RMK AO2 T02540186
KETN 260035Z AUTO 12006KT 10SM CLR 26/18 A2991 RMK AO2 T02560185
KETN 260015Z AUTO 11006KT 10SM CLR 26/18 A2991 RMK AO2 T02600184
KETN 252355Z AUTO 11005KT 10SM CLR 27/18 A2991 RMK AO2 T02670184 10308 20265 403080089
KETN 252335Z AUTO 11005KT 10SM CLR 28/19 A2990 RMK AO2 T02760185
KETN 252315Z AUTO 12005KT 10SM CLR 29/18 A2990 RMK AO2 T02870184
KETN 252255Z AUTO 12006KT 10SM CLR 30/18 A2990 RMK AO2 T02950180
KETN 252235Z AUTO 12008KT 10SM CLR 30/18 A2990 RMK AO2 T03000176
KETN 252215Z AUTO 15007KT 10SM CLR 30/18 A2990 RMK AO2 T03040178
KETN 252155Z AUTO 13006KT 10SM CLR 30/18 A2990 RMK AO2 T03040180
KETN 252135Z AUTO 14004KT 10SM CLR 30/18 A2991 RMK AO2 T03050181
KETN 252115Z AUTO 12006KT 10SM CLR 31/18 A2991 RMK AO2 T03060181
KETN 252055Z AUTO 16006KT 10SM CLR 30/18 A2992 RMK AO2 T03030181
KETN 252035Z AUTO 15008KT 090V170 10SM CLR 30/18 A2992 RMK AO2 T03000180
KETN 252015Z AUTO 19007KT 10SM CLR 30/18 A2992 RMK AO2 T03020180
KETN 251955Z AUTO 16003KT 10SM CLR 30/18 A2993 RMK AO2 T02980176
KETN 251935Z AUTO 14007KT 120V180 10SM CLR 29/18 A2994 RMK AO2 T02940184
KETN 251915Z AUTO 15005KT 10SM CLR 29/18 A2995 RMK AO2 T02890177
KETN 251855Z AUTO 13004KT 10SM CLR 28/18 A2996 RMK AO2 T02850180
KETN 251835Z AUTO 00000KT 10SM CLR 28/18 A2996 RMK AO2 T02760178
KETN 251815Z AUTO 16007KT 10SM CLR 27/18 A2997 RMK AO2 T02700180
KETN 251755Z AUTO 12006KT 10SM CLR 27/18 A2998 RMK AO2 T02670180 10268 20089
KETN 251735Z AUTO 11003KT 10SM CLR 25/18 A2999 RMK AO2 T02550175
KETN 251715Z AUTO 14003KT 10SM CLR 25/17 A3000 RMK AO2 T02480173
KETN 251655Z AUTO 10SM CLR 24/17 A3000 RMK AO2 T02380167
KETN 251635Z AUTO 13006G53KT 10SM CLR 24/17 A3000 RMK AO2 T02370168
KETN 251615Z AUTO 10SM CLR 23/16 A3001 RMK AO2 T02270163
KETN 251555Z AUTO 08004G42KT 10SM CLR 22/16 A3001 RMK AO2 T02200163
KETN 251535Z AUTO 10SM CLR 21/16 A3001 RMK AO2 T02110157
KETN 251515Z AUTO 10006KT 10SM CLR 20/15 A3002 RMK AO2 T02040154
KETN 251455Z AUTO 10004KT 7SM CLR 19/14 A3002 RMK AO2 T01910141
KETN 251435Z AUTO 00000KT 10SM CLR 17/13 A3001 RMK AO2 T01660127
KETN 251415Z AUTO 00000KT 10SM CLR 15/12 A3001 RMK AO2 T01460116
KETN 251355Z AUTO 00000KT 10SM CLR 13/11 A3001 RMK AO2 T01270105
KETN 251335Z AUTO 00000KT 10SM CLR 11/10 A2999 RMK AO2 T01110105
KETN 251315Z AUTO 00000KT 10SM CLR 10/09 A2998 RMK AO2 T00980091
KETN 251255Z AUTO 00000KT 10SM CLR 09/09 A2998 RMK AO2 T00940087
KETN 251235Z AUTO 00000KT 10SM CLR 09/08 A2998 RMK AO2 T00920085
KETN 251215Z AUTO 00000KT 10SM CLR 09/09 A2997 RMK AO2 T00940086
KETN 251155Z AUTO 00000KT 10SM CLR 09/09 A2997 RMK AO2 T00920086 10130 20089
KETN 251135Z AUTO 00000KT 10SM CLR 09/09 A2996 RMK AO2 T00930086
KETN 251115Z AUTO 00000KT 10SM CLR 10/09 A2996 RMK AO2 T00960085
KETN 251055Z AUTO 00000KT 10SM CLR 09/08 A2996 RMK AO2 T00890081
KETN 251035Z AUTO 00000KT 10SM CLR 09/08 A2996 RMK AO2 T00910083
KETN 251015Z AUTO 00000KT 10SM CLR 09/08 A2995 RMK AO2 T00930084
KETN 250955Z AUTO 00000KT 10SM CLR 10/09 A2995 RMK AO2 T00990089
KETN 250935Z AUTO 00000KT 10SM CLR 10/08 A2995 RMK AO2 T00970084
KETN 250915Z AUTO 00000KT 10SM CLR 10/08 A2995 RMK AO2 T00960083
KETN 250855Z AUTO 00000KT 10SM CLR 10/08 A2995 RMK AO2 T00980082
KETN 250835Z AUTO 00000KT 10SM CLR 11/09 A2995 RMK AO2 T01140092
KETN 250815Z AUTO 35003KT 10SM CLR 10/08 A2995 RMK AO2 T01020085
KETN 250755Z AUTO 35003KT 10SM CLR 10/08 A2995 RMK AO2 T00990081
KETN 250735Z AUTO 00000KT 10SM CLR 10/08 A2995 RMK AO2 T01050084
KETN 250715Z AUTO 00000KT 10SM CLR 11/08 A2995 RMK AO2 T01070084
KETN 250655Z AUTO 00000KT 10SM CLR 11/09 A2994 RMK AO2 T01100086
KETN 250635Z AUTO 00000KT 10SM CLR 11/09 A2994 RMK AO2 T01050085
KETN 250615Z AUTO 00000KT 10SM CLR 12/09 A2994 RMK AO2 T01150087